< < Back
Terminal Aerodrome Forecast


Current Version              Previous Versions:   1  2  3  4  5  6  7  8  9  

Terminal Aerodrome Forecast

337
FTUS42 KCAE 291438 AAA
TAFCAE
TAF AMD
KCAE 291438Z 2915/3012 VRB03KT P6SM SCT060 BKN150
     FM291600 12006KT P6SM SCT040
     FM291900 12006KT P6SM VCSH BKN050 BKN150
     FM300200 VRB03KT P6SM SCT050 BKN150=

Latest METAR

256
SAUS80 KWBC 292200 RRA
MTRCAE
METAR KCAE 292156Z 10SM SCT080 BKN150 36/19 A2989 RMK AO2 SLP118
T03560189


USA.gov is the U.S. government's official web portal to all federal, state and local government web resources and services.